Time;durP1;ratioP1;P1;durP2;ratioP2;P2;SDS_P1;SDS_P2;PMS_P1;PMS_P2;Temp;Humidity;BMP_temperature;BMP_pressure;BME280_temperature;BME280_humidity;BME280_pressure;Samples;Min_cycle;Max_cycle;Signal;HPM_P1;HPM_P2
2022/04/28 00:00:46;;;;;;;;;;;3.20;99.90;;;;;;5076526;28;19927;-75
2022/04/28 00:03:11;;;;;;;;;;;3.20;99.90;;;;;;5066487;28;20373;-75
2022/04/28 00:05:37;;;;;;;;;;;3.20;99.90;;;;;;5066750;28;19920;-76
2022/04/28 00:08:03;;;;;;;;;;;3.20;99.90;;;;;;5038929;28;20015;-75
2022/04/28 00:10:29;;;;;;;;;;;3.20;99.90;;;;;;5091220;28;19969;-75
2022/04/28 00:12:55;;;;;;;;;;;3.10;99.90;;;;;;5075119;28;19919;-75
2022/04/28 00:15:22;;;;;;;;;;;3.10;99.90;;;;;;5089235;28;19920;-74
2022/04/28 00:17:47;;;;;;;;;;;3.00;99.90;;;;;;5096346;28;19920;-75
2022/04/28 00:20:13;;;;;;;;;;;3.00;99.90;;;;;;5061229;28;20430;-75
2022/04/28 00:22:38;;;;;;;;;;;3.00;99.90;;;;;;5072775;28;19924;-75
2022/04/28 00:25:05;;;;;;;;;;;3.00;99.90;;;;;;5083703;28;19923;-74
2022/04/28 00:27:30;;;;;;;;;;;2.90;99.90;;;;;;5113279;27;19920;-75
2022/04/28 00:29:56;;;;;;;;;;;2.90;99.90;;;;;;5085443;28;19968;-74
2022/04/28 00:32:23;;;;;;;;;;;2.90;99.90;;;;;;5056250;28;21038;-75
2022/04/28 00:34:49;;;;;;;;;;;2.90;99.90;;;;;;5065336;28;19920;-75
2022/04/28 00:37:14;;;;;;;;;;;2.90;99.90;;;;;;5068884;28;20003;-75
2022/04/28 00:39:40;;;;;;;;;;;2.80;99.90;;;;;;5076553;28;19916;-75
2022/04/28 00:42:10;;;;;;;;;;;2.80;99.90;;;;;;5037959;28;20010;-75
2022/04/28 00:44:36;;;;;;;;;;;2.80;99.90;;;;;;5071902;28;20007;-75
2022/04/28 00:47:01;;;;;;;;;;;2.80;99.90;;;;;;5077650;28;19928;-74
2022/04/28 00:52:13;;;;;;;;;;;2.80;99.90;;;;;;5090318;28;19924;-75
2022/04/28 00:54:38;;;;;;;;;;;2.70;99.90;;;;;;5074126;28;19916;-75
2022/04/28 00:57:04;;;;;;;;;;;2.80;99.90;;;;;;5061094;28;20283;-75
2022/04/28 00:59:30;;;;;;;;;;;2.70;99.90;;;;;;5046532;28;19993;-75
2022/04/28 01:01:56;;;;;;;;;;;2.70;99.90;;;;;;5078914;28;19916;-75
2022/04/28 01:04:21;;;;;;;;;;;2.60;99.90;;;;;;5056973;28;19939;-75
2022/04/28 01:06:49;;;;;;;;;;;2.60;99.90;;;;;;5071677;28;19920;-75
2022/04/28 01:09:16;;;;;;;;;;;2.60;99.90;;;;;;5049464;28;19939;-75
2022/04/28 01:11:42;;;;;;;;;;;2.60;99.90;;;;;;5099791;28;20383;-74
2022/04/28 01:14:18;;;;;;;;;;;2.60;99.90;;;;;;5073022;28;19916;-75
2022/04/28 01:16:49;;;;;;;;;;;2.50;99.90;;;;;;5093973;28;19981;-74
2022/04/28 01:19:14;;;;;;;;;;;2.60;99.90;;;;;;5056501;28;20290;-75
2022/04/28 01:21:41;;;;;;;;;;;2.50;99.90;;;;;;5069066;28;20496;-74
2022/04/28 01:24:12;;;;;;;;;;;2.50;99.90;;;;;;5092302;28;19920;-74
2022/04/28 01:26:38;;;;;;;;;;;2.60;99.90;;;;;;5104486;28;19956;-74
2022/04/28 01:29:04;;;;;;;;;;;2.50;99.90;;;;;;5068689;28;20334;-75
2022/04/28 01:31:30;;;;;;;;;;;2.50;99.90;;;;;;5106849;27;19917;-75
2022/04/28 01:33:59;;;;;;;;;;;2.50;99.90;;;;;;5073613;28;20011;-74
2022/04/28 01:36:25;;;;;;;;;;;2.50;99.90;;;;;;5071437;28;20366;-74
2022/04/28 01:38:52;;;;;;;;;;;2.50;99.90;;;;;;5064174;28;20022;-75
2022/04/28 01:41:17;;;;;;;;;;;2.50;99.90;;;;;;5110607;27;19959;-74
2022/04/28 01:43:45;;;;;;;;;;;2.50;99.90;;;;;;5079025;28;20007;-75
2022/04/28 01:46:12;;;;;;;;;;;2.50;99.90;;;;;;5059271;28;19959;-74
2022/04/28 01:48:47;;;;;;;;;;;2.50;99.90;;;;;;5052047;28;19962;-75
2022/04/28 01:57:25;;;;;;;;;;;2.50;99.90;;;;;;5055501;28;20011;-74
2022/04/28 02:00:12;;;;;;;;;;;2.50;99.90;;;;;;5046683;28;20015;-75
2022/04/28 02:02:43;;;;;;;;;;;2.60;99.90;;;;;;5054881;28;20003;-74
2022/04/28 02:05:10;;;;;;;;;;;2.70;99.90;;;;;;5063225;28;20036;-75
2022/04/28 02:07:35;;;;;;;;;;;2.70;99.90;;;;;;5080012;28;19927;-75
2022/04/28 02:10:03;;;;;;;;;;;2.80;99.90;;;;;;5056232;28;19920;-75
2022/04/28 02:12:29;;;;;;;;;;;2.90;99.90;;;;;;5052349;28;20019;-74
2022/04/28 02:15:17;;;;;;;;;;;3.00;99.90;;;;;;5077770;28;19916;-74
2022/04/28 02:18:03;;;;;;;;;;;3.10;99.90;;;;;;5071765;28;19916;-74
2022/04/28 02:20:29;;;;;;;;;;;3.20;99.90;;;;;;5095931;28;19920;-74
2022/04/28 02:22:55;;;;;;;;;;;3.30;99.90;;;;;;5058952;28;19916;-75
2022/04/28 02:25:24;;;;;;;;;;;3.40;99.90;;;;;;5088122;28;19938;-75
2022/04/28 02:27:51;;;;;;;;;;;3.60;99.90;;;;;;5094684;28;19966;-74
2022/04/28 02:30:19;;;;;;;;;;;3.60;99.90;;;;;;5045694;28;19916;-75
2022/04/28 02:35:37;;;;;;;;;;;3.80;99.90;;;;;;5093761;28;19916;-75
2022/04/28 02:38:03;;;;;;;;;;;4.00;99.90;;;;;;5101912;28;19920;-75
2022/04/28 02:40:30;;;;;;;;;;;4.00;99.90;;;;;;5057639;28;19957;-74
2022/04/28 02:43:00;;;;;;;;;;;4.10;99.90;;;;;;5072719;28;19920;-74
2022/04/28 02:45:26;;;;;;;;;;;4.10;99.90;;;;;;5094727;28;19924;-75
2022/04/28 02:47:55;;;;;;;;;;;4.30;99.90;;;;;;5062794;28;19969;-74
2022/04/28 02:50:21;;;;;;;;;;;4.40;99.90;;;;;;5056256;28;20283;-75
2022/04/28 02:52:48;;;;;;;;;;;4.40;99.90;;;;;;5045465;28;19927;-75
2022/04/28 02:55:13;;;;;;;;;;;4.50;99.90;;;;;;5107619;27;20310;-75
2022/04/28 02:57:41;;;;;;;;;;;4.60;99.90;;;;;;5067125;28;19916;-74
2022/04/28 03:00:07;;;;;;;;;;;4.70;99.90;;;;;;5096018;28;19924;-75
2022/04/28 03:02:44;;;;;;;;;;;4.70;99.90;;;;;;5052010;28;20003;-75
2022/04/28 03:05:09;;;;;;;;;;;4.80;99.90;;;;;;5065551;28;20386;-75
2022/04/28 03:13:15;;;;;;;;;;;4.90;99.90;;;;;;5101441;27;19921;-75
2022/04/28 03:15:41;;;;;;;;;;;5.00;99.90;;;;;;5081472;28;19925;-74
2022/04/28 03:18:07;;;;;;;;;;;5.00;99.90;;;;;;5056866;28;19917;-75
2022/04/28 03:20:33;;;;;;;;;;;5.10;99.90;;;;;;5074633;28;19984;-74
2022/04/28 03:23:03;;;;;;;;;;;5.10;99.90;;;;;;5064105;28;20278;-74
2022/04/28 03:25:29;;;;;;;;;;;5.10;99.90;;;;;;5072114;28;19938;-74
2022/04/28 03:27:56;;;;;;;;;;;5.20;99.90;;;;;;5098557;28;19974;-75
2022/04/28 03:30:23;;;;;;;;;;;5.20;99.90;;;;;;5060759;28;19920;-74
2022/04/28 03:33:05;;;;;;;;;;;5.20;99.90;;;;;;5078244;28;19981;-75
2022/04/28 03:35:30;;;;;;;;;;;5.30;99.90;;;;;;5064849;28;20402;-75
2022/04/28 03:37:59;;;;;;;;;;;5.30;99.90;;;;;;5086190;28;19987;-74
2022/04/28 03:40:26;;;;;;;;;;;5.30;99.90;;;;;;5095122;28;20000;-75
2022/04/28 03:42:51;;;;;;;;;;;5.40;99.90;;;;;;5064208;28;20010;-75
2022/04/28 03:45:18;;;;;;;;;;;5.40;99.90;;;;;;5075539;28;19916;-74
2022/04/28 03:47:48;;;;;;;;;;;5.40;99.90;;;;;;5059171;28;19920;-75
2022/04/28 03:50:13;;;;;;;;;;;5.50;99.90;;;;;;5101484;28;19954;-75
2022/04/28 03:52:40;;;;;;;;;;;5.50;99.90;;;;;;5051042;28;19916;-76
2022/04/28 03:55:06;;;;;;;;;;;5.60;99.90;;;;;;5054990;28;19916;-75
2022/04/28 03:57:32;;;;;;;;;;;5.60;99.90;;;;;;5033984;28;20406;-75
2022/04/28 03:59:58;;;;;;;;;;;5.60;99.90;;;;;;5099904;28;19946;-75
2022/04/28 04:02:32;;;;;;;;;;;5.70;99.90;;;;;;5091101;28;19956;-74
2022/04/28 04:05:01;;;;;;;;;;;5.70;99.90;;;;;;5029485;28;20436;-74
2022/04/28 04:07:31;;;;;;;;;;;5.70;99.90;;;;;;5027318;28;19928;-75
2022/04/28 04:10:11;;;;;;;;;;;5.70;99.90;;;;;;5066135;28;19925;-74
2022/04/28 04:12:40;;;;;;;;;;;5.80;99.90;;;;;;5042992;28;19963;-73
2022/04/28 04:15:15;;;;;;;;;;;5.80;99.90;;;;;;5084011;27;19999;-74
2022/04/28 04:18:08;;;;;;;;;;;5.90;99.90;;;;;;5019966;28;19920;-74
2022/04/28 04:20:44;;;;;;;;;;;5.90;99.90;;;;;;5089021;28;20142;-74
2022/04/28 04:23:09;;;;;;;;;;;6.00;99.90;;;;;;5071962;28;19938;-74
2022/04/28 04:25:35;;;;;;;;;;;6.00;99.90;;;;;;5069422;28;20345;-75
2022/04/28 04:28:04;;;;;;;;;;;6.00;99.90;;;;;;5068036;28;19936;-75
2022/04/28 04:33:29;;;;;;;;;;;6.10;99.90;;;;;;5092872;28;20311;-75
2022/04/28 04:35:55;;;;;;;;;;;6.10;99.90;;;;;;5054741;28;19916;-75
2022/04/28 04:38:22;;;;;;;;;;;6.10;99.90;;;;;;5049889;28;20446;-76
2022/04/28 04:40:48;;;;;;;;;;;6.20;99.90;;;;;;5072030;28;20398;-75
2022/04/28 04:43:14;;;;;;;;;;;6.20;99.90;;;;;;5059058;28;19916;-73
2022/04/28 04:45:43;;;;;;;;;;;6.30;99.90;;;;;;5066588;28;19940;-75
2022/04/28 04:48:25;;;;;;;;;;;6.30;99.90;;;;;;5100629;27;20349;-75
2022/04/28 04:50:52;;;;;;;;;;;6.30;99.90;;;;;;5089181;28;20001;-76
2022/04/28 04:53:27;;;;;;;;;;;6.30;99.90;;;;;;5043382;28;19923;-75
2022/04/28 04:55:52;;;;;;;;;;;6.40;99.90;;;;;;5089541;28;19927;-75
2022/04/28 04:58:18;;;;;;;;;;;6.40;99.90;;;;;;5041945;28;20329;-74
2022/04/28 05:00:44;;;;;;;;;;;6.50;99.90;;;;;;5088687;28;20012;-75
2022/04/28 05:03:29;;;;;;;;;;;6.50;99.90;;;;;;5076746;28;19916;-75
2022/04/28 05:05:55;;;;;;;;;;;6.60;99.90;;;;;;5072629;28;19922;-75
2022/04/28 05:08:28;;;;;;;;;;;6.60;99.90;;;;;;5064553;28;19924;-74
2022/04/28 05:11:00;;;;;;;;;;;6.70;99.90;;;;;;5051368;28;19928;-75
2022/04/28 05:13:26;;;;;;;;;;;6.80;99.90;;;;;;5084626;28;19917;-74
2022/04/28 05:15:56;;;;;;;;;;;6.80;99.90;;;;;;5094910;28;19916;-75
2022/04/28 05:18:35;;;;;;;;;;;6.90;99.90;;;;;;5069291;28;20005;-75
2022/04/28 05:21:16;;;;;;;;;;;6.90;99.90;;;;;;5086667;28;19916;-74
2022/04/28 05:24:02;;;;;;;;;;;7.00;99.90;;;;;;5103492;28;19927;-74
2022/04/28 05:26:46;;;;;;;;;;;7.10;99.90;;;;;;5105575;28;20013;-75
2022/04/28 05:29:30;;;;;;;;;;;7.10;99.90;;;;;;5090716;28;19936;-75
2022/04/28 05:32:14;;;;;;;;;;;7.20;99.90;;;;;;5097798;28;19986;-75
2022/04/28 05:34:50;;;;;;;;;;;7.20;99.90;;;;;;5086437;28;19916;-75
2022/04/28 05:37:18;;;;;;;;;;;7.30;99.90;;;;;;5045832;28;19927;-75
2022/04/28 05:39:47;;;;;;;;;;;7.40;99.90;;;;;;5057585;28;19917;-75
2022/04/28 05:42:12;;;;;;;;;;;7.40;99.90;;;;;;5084431;28;19925;-75
2022/04/28 05:47:24;;;;;;;;;;;7.50;99.90;;;;;;5069221;28;19924;-74
2022/04/28 05:49:50;;;;;;;;;;;7.60;99.90;;;;;;5068788;28;19920;-74
2022/04/28 05:52:16;;;;;;;;;;;7.60;99.90;;;;;;5084556;28;19939;-74
2022/04/28 05:54:41;;;;;;;;;;;7.60;99.90;;;;;;5045890;28;19925;-73
2022/04/28 05:57:11;;;;;;;;;;;7.70;99.90;;;;;;5059493;28;19916;-73
2022/04/28 05:59:37;;;;;;;;;;;7.80;99.90;;;;;;5046938;28;19921;-73
2022/04/28 06:02:21;;;;;;;;;;;7.80;99.90;;;;;;5075047;28;19950;-73
2022/04/28 06:04:47;;;;;;;;;;;7.80;99.90;;;;;;5090969;28;19920;-73
2022/04/28 06:07:13;;;;;;;;;;;7.90;99.90;;;;;;5059781;28;19928;-73
2022/04/28 06:09:46;;;;;;;;;;;7.90;99.90;;;;;;5064976;28;19973;-73
2022/04/28 06:12:16;;;;;;;;;;;7.90;99.90;;;;;;5093077;28;19916;-74
2022/04/28 06:15:08;;;;;;;;;;;8.00;99.90;;;;;;5082516;28;19936;-73
2022/04/28 06:17:47;;;;;;;;;;;8.00;99.90;;;;;;5066551;28;20296;-74
2022/04/28 06:20:13;;;;;;;;;;;8.00;99.90;;;;;;5069783;28;19924;-73
2022/04/28 06:23:02;;;;;;;;;;;8.10;99.90;;;;;;5082043;28;19922;-73
2022/04/28 06:25:33;;;;;;;;;;;8.10;99.90;;;;;;5062354;28;20368;-73
2022/04/28 06:28:02;;;;;;;;;;;8.20;99.90;;;;;;5064753;28;19970;-73
2022/04/28 06:30:27;;;;;;;;;;;8.20;99.90;;;;;;5087980;28;19978;-74
2022/04/28 06:33:04;;;;;;;;;;;8.30;99.90;;;;;;5051466;28;19991;-73
2022/04/28 06:35:43;;;;;;;;;;;8.40;99.90;;;;;;5077512;28;20391;-74
2022/04/28 06:38:08;;;;;;;;;;;8.50;99.90;;;;;;5065324;28;19926;-74
2022/04/28 06:40:36;;;;;;;;;;;8.60;99.90;;;;;;5055393;28;20379;-74
2022/04/28 06:43:03;;;;;;;;;;;8.70;99.90;;;;;;5049333;28;19916;-74
2022/04/28 06:45:28;;;;;;;;;;;8.90;99.90;;;;;;5071319;28;19977;-74
2022/04/28 06:48:01;;;;;;;;;;;9.00;99.90;;;;;;5103662;27;19920;-73
2022/04/28 06:50:39;;;;;;;;;;;9.10;99.90;;;;;;5112885;27;20354;-74
2022/04/28 06:53:37;;;;;;;;;;;9.30;99.90;;;;;;5028647;28;19949;-73
2022/04/28 06:56:07;;;;;;;;;;;9.40;99.90;;;;;;5037859;28;19920;-73
2022/04/28 06:58:43;;;;;;;;;;;9.60;99.90;;;;;;5078795;28;20334;-73
2022/04/28 07:01:13;;;;;;;;;;;9.70;99.90;;;;;;5071092;28;20345;-73
2022/04/28 07:03:40;;;;;;;;;;;9.90;99.90;;;;;;5062071;28;19974;-73
2022/04/28 07:06:06;;;;;;;;;;;10.00;99.90;;;;;;5042867;28;19923;-73
2022/04/28 07:08:31;;;;;;;;;;;10.20;99.90;;;;;;5047635;28;19924;-72
2022/04/28 07:10:58;;;;;;;;;;;10.30;99.90;;;;;;5064332;28;19927;-74
2022/04/28 07:13:23;;;;;;;;;;;10.40;99.90;;;;;;5077940;28;19916;-74
2022/04/28 07:16:09;;;;;;;;;;;10.60;99.90;;;;;;5063388;28;19987;-73
2022/04/28 07:18:46;;;;;;;;;;;10.90;99.90;;;;;;5097978;28;19982;-74
2022/04/28 07:21:12;;;;;;;;;;;11.30;99.90;;;;;;5083662;28;20414;-75
2022/04/28 07:23:39;;;;;;;;;;;11.60;99.90;;;;;;5066516;28;19931;-72
2022/04/28 07:26:06;;;;;;;;;;;11.80;99.90;;;;;;5082495;28;19924;-74
2022/04/28 07:28:31;;;;;;;;;;;12.00;99.90;;;;;;5049934;28;19920;-75
2022/04/28 07:31:00;;;;;;;;;;;12.10;99.90;;;;;;5067196;28;19935;-75
2022/04/28 07:33:50;;;;;;;;;;;12.10;99.90;;;;;;5079388;28;19939;-73
2022/04/28 07:36:34;;;;;;;;;;;12.20;99.90;;;;;;5096974;27;20434;-73
2022/04/28 07:39:20;;;;;;;;;;;12.30;99.90;;;;;;5055295;28;19924;-74
2022/04/28 07:42:06;;;;;;;;;;;12.40;99.90;;;;;;5061739;28;20384;-74
2022/04/28 07:44:35;;;;;;;;;;;12.50;99.90;;;;;;5050942;28;20502;-75
2022/04/28 07:47:03;;;;;;;;;;;12.60;99.90;;;;;;5043491;28;19996;-73
2022/04/28 07:49:34;;;;;;;;;;;12.80;99.90;;;;;;5048193;28;19920;-73
2022/04/28 07:52:00;;;;;;;;;;;13.00;99.90;;;;;;5048926;28;19952;-74
2022/04/28 07:54:26;;;;;;;;;;;13.10;99.90;;;;;;5067364;28;19959;-73
2022/04/28 07:56:51;;;;;;;;;;;13.40;99.90;;;;;;5061681;28;20354;-73
2022/04/28 07:59:18;;;;;;;;;;;13.50;99.90;;;;;;5066966;28;19920;-73
2022/04/28 08:02:03;;;;;;;;;;;13.70;99.90;;;;;;5077973;28;20046;-73
2022/04/28 08:04:30;;;;;;;;;;;13.60;99.90;;;;;;5063865;28;19916;-74
2022/04/28 08:06:59;;;;;;;;;;;13.50;99.90;;;;;;5048072;28;19916;-73
2022/04/28 08:09:26;;;;;;;;;;;13.30;99.90;;;;;;5064805;28;19994;-73
2022/04/28 08:11:52;;;;;;;;;;;13.00;99.90;;;;;;5045109;28;20387;-73
2022/04/28 08:14:18;;;;;;;;;;;12.90;99.90;;;;;;5048547;28;19931;-73
2022/04/28 08:16:46;;;;;;;;;;;12.80;99.90;;;;;;5047987;28;19917;-74
2022/04/28 08:19:12;;;;;;;;;;;12.70;99.90;;;;;;5042964;28;19924;-73
2022/04/28 08:21:54;;;;;;;;;;;12.60;99.90;;;;;;5071369;28;19924;-73
2022/04/28 08:24:21;;;;;;;;;;;12.50;99.90;;;;;;5047618;28;20407;-74
2022/04/28 08:26:47;;;;;;;;;;;12.40;99.90;;;;;;5046755;28;19920;-74
2022/04/28 08:29:13;;;;;;;;;;;12.30;99.90;;;;;;5061673;28;20422;-75
2022/04/28 08:31:44;;;;;;;;;;;12.30;99.90;;;;;;5083628;22;19994;-76
2022/04/28 08:34:11;;;;;;;;;;;12.30;99.90;;;;;;5038975;28;19936;-77
2022/04/28 08:36:37;;;;;;;;;;;12.40;99.90;;;;;;5041147;28;19927;-77
2022/04/28 08:39:04;;;;;;;;;;;12.40;99.90;;;;;;5040658;28;19932;-80
2022/04/28 08:41:32;;;;;;;;;;;12.40;99.90;;;;;;5041700;28;19928;-76
2022/04/28 08:44:17;;;;;;;;;;;12.40;99.90;;;;;;5044912;28;20311;-74
2022/04/28 08:46:52;;;;;;;;;;;12.50;99.90;;;;;;5052056;28;19955;-76
2022/04/28 08:49:25;;;;;;;;;;;12.50;99.90;;;;;;5032260;28;19975;-75
2022/04/28 08:52:06;;;;;;;;;;;12.70;99.90;;;;;;5064706;28;19916;-76
2022/04/28 08:54:36;;;;;;;;;;;12.90;99.90;;;;;;5032844;28;19971;-77
2022/04/28 08:57:03;;;;;;;;;;;12.90;99.90;;;;;;5031041;28;19938;-75
2022/04/28 08:59:29;;;;;;;;;;;13.20;99.90;;;;;;5063523;28;19920;-77
2022/04/28 09:01:55;;;;;;;;;;;13.40;99.90;;;;;;5047658;28;19931;-77
2022/04/28 09:04:30;;;;;;;;;;;13.50;99.90;;;;;;5076314;28;19948;-78
2022/04/28 09:07:14;;;;;;;;;;;13.50;99.90;;;;;;5028885;28;19932;-77
2022/04/28 09:09:47;;;;;;;;;;;13.50;99.90;;;;;;5056122;28;19921;-80
2022/04/28 09:12:32;;;;;;;;;;;13.70;99.90;;;;;;5054510;28;19986;-76
2022/04/28 09:15:27;;;;;;;;;;;13.90;99.90;;;;;;5045049;28;19921;-78
2022/04/28 09:18:03;;;;;;;;;;;14.00;99.90;;;;;;5044347;28;20653;-83
2022/04/28 09:20:29;;;;;;;;;;;14.00;99.90;;;;;;5047071;28;20000;-76
2022/04/28 09:23:00;;;;;;;;;;;13.90;99.90;;;;;;5028035;28;19923;-75
2022/04/28 09:25:32;;;;;;;;;;;13.80;99.90;;;;;;5081656;28;19957;-75
2022/04/28 09:28:02;;;;;;;;;;;13.70;99.90;;;;;;5047357;28;19916;-75
2022/04/28 09:30:33;;;;;;;;;;;13.70;99.90;;;;;;5046286;28;19943;-80
2022/04/28 09:33:20;;;;;;;;;;;13.80;99.90;;;;;;5029211;28;19920;-75
2022/04/28 09:36:08;;;;;;;;;;;13.90;99.90;;;;;;5024715;28;19924;-74
2022/04/28 09:38:52;;;;;;;;;;;14.10;99.90;;;;;;5063535;28;19943;-78
2022/04/28 09:44:05;;;;;;;;;;;14.10;99.90;;;;;;5089709;28;19917;-75
2022/04/28 09:46:31;;;;;;;;;;;14.10;99.90;;;;;;5052542;28;19920;-76
2022/04/28 09:48:57;;;;;;;;;;;14.20;99.90;;;;;;5062083;28;19928;-74
2022/04/28 09:51:35;;;;;;;;;;;14.20;99.90;;;;;;5049290;28;19940;-75
2022/04/28 09:54:07;;;;;;;;;;;14.30;99.60;;;;;;5037359;28;19921;-75
2022/04/28 09:56:43;;;;;;;;;;;14.30;99.50;;;;;;5065533;28;19917;-75
2022/04/28 09:59:19;;;;;;;;;;;14.40;99.50;;;;;;5028477;28;19917;-75
2022/04/28 10:01:46;;;;;;;;;;;14.40;99.70;;;;;;5057588;28;19935;-80
2022/04/28 10:04:12;;;;;;;;;;;14.50;99.90;;;;;;5046781;28;20436;-76
2022/04/28 10:07:10;;;;;;;;;;;14.70;99.90;;;;;;5048362;28;19928;-80
2022/04/28 10:09:38;;;;;;;;;;;14.90;98.90;;;;;;5051229;28;19917;-76
2022/04/28 10:12:07;;;;;;;;;;;15.10;99.40;;;;;;5028734;28;19959;-78
2022/04/28 10:14:50;;;;;;;;;;;15.20;99.20;;;;;;5039518;28;19917;-75
2022/04/28 10:17:18;;;;;;;;;;;15.20;99.50;;;;;;5055757;28;19924;-76
2022/04/28 10:19:47;;;;;;;;;;;15.30;99.70;;;;;;5063030;28;19936;-75
2022/04/28 10:22:33;;;;;;;;;;;15.10;99.40;;;;;;5063185;28;20011;-76
2022/04/28 10:33:44;;;;;;;;;;;15.20;99.70;;;;;;5051192;28;19968;-81
2022/04/28 10:36:14;;;;;;;;;;;15.30;99.20;;;;;;5050468;28;19917;-72
2022/04/28 10:38:42;;;;;;;;;;;15.40;97.40;;;;;;5051394;28;20384;-79
2022/04/28 10:41:09;;;;;;;;;;;15.40;98.10;;;;;;5050738;28;19923;-76
2022/04/28 10:43:38;;;;;;;;;;;15.40;97.20;;;;;;5049537;28;19917;-79
2022/04/28 10:46:22;;;;;;;;;;;15.40;97.50;;;;;;5052742;28;19928;-76
2022/04/28 10:48:51;;;;;;;;;;;15.40;97.70;;;;;;5043328;28;20360;-75
2022/04/28 10:51:18;;;;;;;;;;;15.50;98.20;;;;;;5049129;28;19921;-76
2022/04/28 10:54:02;;;;;;;;;;;15.60;98.30;;;;;;5049753;28;19977;-78
2022/04/28 10:56:28;;;;;;;;;;;15.60;98.10;;;;;;5042451;28;19917;-79
2022/04/28 10:59:00;;;;;;;;;;;15.50;98.30;;;;;;5048225;28;19974;-75
2022/04/28 11:01:27;;;;;;;;;;;15.50;97.30;;;;;;5046354;28;19931;-84
2022/04/28 11:03:54;;;;;;;;;;;15.40;98.00;;;;;;5039351;28;19963;-76
2022/04/28 11:06:21;;;;;;;;;;;15.50;98.00;;;;;;5048866;28;19929;-81
2022/04/28 11:08:48;;;;;;;;;;;15.60;98.20;;;;;;5068263;28;19943;-77
2022/04/28 11:11:14;;;;;;;;;;;15.70;98.30;;;;;;5038281;28;20384;-75
2022/04/28 11:13:45;;;;;;;;;;;15.80;98.40;;;;;;5046097;28;19924;-79
2022/04/28 11:16:11;;;;;;;;;;;16.10;98.00;;;;;;5049839;28;19928;-77
2022/04/28 11:18:37;;;;;;;;;;;16.30;97.90;;;;;;5045225;28;19967;-75
2022/04/28 11:21:04;;;;;;;;;;;16.50;97.90;;;;;;5053601;28;19916;-76
2022/04/28 11:23:34;;;;;;;;;;;16.60;97.20;;;;;;5055475;28;20623;-83
2022/04/28 11:26:00;;;;;;;;;;;16.50;96.70;;;;;;5018984;28;20007;-79
2022/04/28 11:28:26;;;;;;;;;;;16.60;97.10;;;;;;5027822;28;19921;-80
2022/04/28 11:30:52;;;;;;;;;;;16.60;97.00;;;;;;5085225;28;19923;-76
2022/04/28 11:33:20;;;;;;;;;;;16.60;96.80;;;;;;5081069;28;19975;-76
2022/04/28 11:35:46;;;;;;;;;;;16.70;95.90;;;;;;5054668;28;19980;-76
2022/04/28 11:38:13;;;;;;;;;;;16.70;94.60;;;;;;5044256;28;19917;-77
2022/04/28 11:40:39;;;;;;;;;;;16.60;95.10;;;;;;5053085;28;19929;-82
2022/04/28 11:43:05;;;;;;;;;;;16.70;95.60;;;;;;5022925;28;20387;-78
2022/04/28 11:45:32;;;;;;;;;;;16.80;95.90;;;;;;5052031;28;19927;-79
2022/04/28 11:47:59;;;;;;;;;;;16.80;96.20;;;;;;5027304;28;19924;-77
2022/04/28 11:50:26;;;;;;;;;;;16.70;96.10;;;;;;5049202;28;19924;-81
2022/04/28 11:52:59;;;;;;;;;;;16.60;96.30;;;;;;5046851;28;19958;-78
2022/04/28 11:55:30;;;;;;;;;;;16.50;95.10;;;;;;5080239;28;19920;-76
2022/04/28 11:57:56;;;;;;;;;;;16.80;94.00;;;;;;5049509;28;19928;-76
2022/04/28 12:00:25;;;;;;;;;;;16.80;94.30;;;;;;5047281;28;20215;-75
2022/04/28 12:02:53;;;;;;;;;;;17.10;94.70;;;;;;5083770;28;19920;-78
2022/04/28 12:05:21;;;;;;;;;;;17.30;94.70;;;;;;5049810;28;19916;-79
2022/04/28 12:07:51;;;;;;;;;;;17.30;94.50;;;;;;5053060;28;19946;-78
2022/04/28 12:15:51;;;;;;;;;;;16.80;93.20;;;;;;5046986;28;19924;-78
2022/04/28 12:21:13;;;;;;;;;;;16.70;94.30;;;;;;5045445;28;19932;-76
2022/04/28 12:23:39;;;;;;;;;;;16.70;94.30;;;;;;5043954;28;19931;-75
2022/04/28 12:26:06;;;;;;;;;;;17.00;94.40;;;;;;5047270;28;19921;-82
2022/04/28 12:28:34;;;;;;;;;;;17.40;94.30;;;;;;5046809;28;19925;-77
2022/04/28 12:31:02;;;;;;;;;;;17.50;93.20;;;;;;5055387;28;19921;-79
2022/04/28 12:33:28;;;;;;;;;;;17.60;92.00;;;;;;5046515;28;19943;-79
2022/04/28 12:35:57;;;;;;;;;;;17.70;92.70;;;;;;5080251;28;19921;-80
2022/04/28 12:38:23;;;;;;;;;;;17.60;92.80;;;;;;5050381;28;20358;-76
2022/04/28 12:40:49;;;;;;;;;;;17.50;92.00;;;;;;5031444;28;19924;-81
2022/04/28 12:43:34;;;;;;;;;;;17.60;91.90;;;;;;5065382;28;19917;-76
2022/04/28 12:46:01;;;;;;;;;;;17.90;91.90;;;;;;5047920;28;19924;-76
2022/04/28 12:48:28;;;;;;;;;;;18.30;91.20;;;;;;5050627;28;19936;-75
2022/04/28 12:51:10;;;;;;;;;;;18.20;90.10;;;;;;5035082;28;20592;-75
2022/04/28 12:53:36;;;;;;;;;;;18.00;91.10;;;;;;5083245;28;19978;-77
2022/04/28 12:56:03;;;;;;;;;;;18.50;91.40;;;;;;5061512;28;19917;-75
2022/04/28 12:58:28;;;;;;;;;;;18.70;91.40;;;;;;5045378;28;19916;-75
2022/04/28 13:00:54;;;;;;;;;;;19.00;88.60;;;;;;5046973;28;20536;-75
2022/04/28 13:03:28;;;;;;;;;;;18.80;86.70;;;;;;5049388;28;19999;-76
2022/04/28 13:05:53;;;;;;;;;;;18.50;86.60;;;;;;5052103;28;19935;-75
2022/04/28 13:08:19;;;;;;;;;;;18.40;87.60;;;;;;5041134;28;20008;-76
2022/04/28 13:10:44;;;;;;;;;;;18.00;85.90;;;;;;5049753;28;19925;-78
2022/04/28 13:13:10;;;;;;;;;;;17.70;88.60;;;;;;5048569;28;19927;-77
2022/04/28 13:15:36;;;;;;;;;;;17.90;90.10;;;;;;5050615;28;19917;-76
2022/04/28 13:18:02;;;;;;;;;;;17.90;90.40;;;;;;5045291;28;19916;-76
2022/04/28 13:20:29;;;;;;;;;;;17.60;90.70;;;;;;5049602;28;20354;-76
2022/04/28 13:22:55;;;;;;;;;;;17.70;90.90;;;;;;5025103;28;19921;-75
2022/04/28 13:25:20;;;;;;;;;;;17.70;91.00;;;;;;5045992;28;20019;-75
2022/04/28 13:27:46;;;;;;;;;;;17.70;91.20;;;;;;5044807;28;19921;-76
2022/04/28 13:30:13;;;;;;;;;;;17.50;90.80;;;;;;5048122;28;19924;-76
2022/04/28 13:32:39;;;;;;;;;;;17.40;90.80;;;;;;5039398;28;19956;-76
2022/04/28 13:35:05;;;;;;;;;;;17.10;91.00;;;;;;5043876;28;20415;-77
2022/04/28 13:37:32;;;;;;;;;;;17.10;90.20;;;;;;5022874;28;19920;-75
2022/04/28 13:39:58;;;;;;;;;;;17.20;90.70;;;;;;5049776;28;19920;-79
2022/04/28 13:42:38;;;;;;;;;;;17.10;91.10;;;;;;5120961;27;20193;-75
2022/04/28 13:45:04;;;;;;;;;;;17.00;91.50;;;;;;5129036;28;19936;-78
2022/04/28 13:47:30;;;;;;;;;;;16.90;91.70;;;;;;5113898;28;19924;-75
2022/04/28 13:49:56;;;;;;;;;;;17.30;91.20;;;;;;5111464;28;19926;-75
2022/04/28 13:52:22;;;;;;;;;;;17.30;91.40;;;;;;5111471;28;19927;-75
2022/04/28 13:54:48;;;;;;;;;;;17.20;91.70;;;;;;5112250;28;19935;-75
2022/04/28 13:57:14;;;;;;;;;;;17.20;91.90;;;;;;5113235;28;19919;-73
2022/04/28 13:59:41;;;;;;;;;;;17.20;92.00;;;;;;5112560;28;20052;-74
2022/04/28 14:02:07;;;;;;;;;;;17.00;92.10;;;;;;5110346;28;20529;-76
2022/04/28 14:04:33;;;;;;;;;;;16.80;92.40;;;;;;5110148;28;19997;-81
2022/04/28 14:06:58;;;;;;;;;;;16.80;92.40;;;;;;5115860;27;20386;-75
2022/04/28 14:09:24;;;;;;;;;;;17.10;92.30;;;;;;5112958;28;19965;-73
2022/04/28 14:11:51;;;;;;;;;;;17.20;92.20;;;;;;5113307;28;19990;-75
2022/04/28 14:14:16;;;;;;;;;;;17.30;92.10;;;;;;5110861;28;19920;-81
2022/04/28 14:16:43;;;;;;;;;;;17.20;91.90;;;;;;5114190;28;19972;-76
2022/04/28 14:19:09;;;;;;;;;;;17.30;91.90;;;;;;5116663;27;20007;-74
2022/04/28 14:21:35;;;;;;;;;;;17.20;91.20;;;;;;5110520;28;19951;-76
2022/04/28 14:24:01;;;;;;;;;;;17.20;90.60;;;;;;5128907;27;19920;-77
2022/04/28 14:26:28;;;;;;;;;;;17.10;90.70;;;;;;5098127;28;19981;-75
2022/04/28 14:28:54;;;;;;;;;;;17.00;91.00;;;;;;5129276;27;19920;-74
2022/04/28 14:31:19;;;;;;;;;;;16.80;91.40;;;;;;5119405;27;19920;-80
2022/04/28 14:33:48;;;;;;;;;;;16.80;91.30;;;;;;5135417;28;20008;-76
2022/04/28 14:36:15;;;;;;;;;;;16.80;91.30;;;;;;5063563;28;19944;-75
2022/04/28 14:38:41;;;;;;;;;;;17.00;91.40;;;;;;5055864;28;19952;-75
2022/04/28 14:41:06;;;;;;;;;;;17.00;91.10;;;;;;5036550;28;19929;-74
2022/04/28 14:43:32;;;;;;;;;;;17.00;91.30;;;;;;5086847;28;19933;-80
2022/04/28 14:45:57;;;;;;;;;;;16.90;91.30;;;;;;5037215;28;19943;-77
2022/04/28 14:48:23;;;;;;;;;;;16.80;91.40;;;;;;5055786;28;19925;-77
2022/04/28 14:53:34;;;;;;;;;;;16.60;92.00;;;;;;5041212;28;20452;-76
2022/04/28 14:56:00;;;;;;;;;;;16.30;92.10;;;;;;5039921;28;20712;-80
2022/04/28 14:58:25;;;;;;;;;;;16.30;92.10;;;;;;5073430;28;19925;-74
2022/04/28 15:00:51;;;;;;;;;;;16.20;91.50;;;;;;5039005;28;19948;-78
2022/04/28 15:03:18;;;;;;;;;;;16.10;91.90;;;;;;5032007;28;19929;-76
2022/04/28 15:05:43;;;;;;;;;;;16.00;92.20;;;;;;5040744;28;19932;-76
2022/04/28 15:08:09;;;;;;;;;;;16.00;92.50;;;;;;5068800;28;19920;-75
2022/04/28 15:10:36;;;;;;;;;;;15.90;92.60;;;;;;5037384;28;19972;-76
2022/04/28 15:13:02;;;;;;;;;;;15.80;92.80;;;;;;5041440;28;19939;-75
2022/04/28 15:15:27;;;;;;;;;;;15.70;93.20;;;;;;5037245;28;19922;-75
2022/04/28 15:17:53;;;;;;;;;;;15.60;93.10;;;;;;5044145;28;19952;-77
2022/04/28 15:20:19;;;;;;;;;;;15.40;93.40;;;;;;5038808;28;19921;-75
2022/04/28 15:22:45;;;;;;;;;;;15.20;93.70;;;;;;5068508;28;19932;-77